createdAt,value
2023-04-18T03:39:45.600Z,11.60
2023-04-18T03:42:49.711Z,11.60
2023-04-18T03:45:52.583Z,10.95
2023-04-18T03:48:55.983Z,10.73
2023-04-18T03:51:58.785Z,10.64
2023-04-18T03:55:01.663Z,10.66
2023-04-18T03:58:05.210Z,10.66
2023-04-18T04:01:08.110Z,10.63
2023-04-18T04:04:13.098Z,10.61
2023-04-18T04:07:15.984Z,10.62
2023-04-18T04:10:19.063Z,10.61
2023-04-18T04:13:23.141Z,10.56
2023-04-18T04:16:27.487Z,10.55
2023-04-18T04:19:30.549Z,10.57
2023-04-18T04:22:34.548Z,10.44
2023-04-18T04:25:38.672Z,10.38
2023-04-18T04:28:46.321Z,10.38
2023-04-18T04:31:49.936Z,10.43
2023-04-18T04:34:53.786Z,10.41
2023-04-18T04:37:56.884Z,10.36
2023-04-18T04:41:00.212Z,10.36
2023-04-18T04:44:04.293Z,10.35
2023-04-18T04:47:07.761Z,10.30
2023-04-18T04:50:15.366Z,10.32
2023-04-18T04:53:18.825Z,10.33
2023-04-18T04:56:22.890Z,10.34
2023-04-18T04:59:26.014Z,10.40
2023-04-18T05:02:30.047Z,10.57
2023-04-18T05:05:33.131Z,10.61
2023-04-18T05:08:36.007Z,10.69
2023-04-18T05:11:38.891Z,10.74
2023-04-18T05:14:41.498Z,10.79
2023-04-18T05:17:44.465Z,10.74
2023-04-18T05:20:47.064Z,10.74
2023-04-18T05:23:50.046Z,10.74
2023-04-18T05:26:53.185Z,10.79
2023-04-18T05:29:56.319Z,10.77
2023-04-18T05:32:59.111Z,10.88
2023-04-18T05:36:02.190Z,10.94
2023-04-18T05:39:04.898Z,11.01
2023-04-18T05:42:08.149Z,11.19
2023-04-18T05:45:11.362Z,11.40
2023-04-18T05:48:14.505Z,11.47
2023-04-18T05:51:17.049Z,11.64
2023-04-18T05:54:23.140Z,11.90
2023-04-18T05:57:25.825Z,12.09
2023-04-18T06:00:29.149Z,12.14
2023-04-18T06:03:40.816Z,12.22
2023-04-18T06:06:43.582Z,12.27
2023-04-18T06:09:46.578Z,12.27
2023-04-18T06:12:49.548Z,12.35
2023-04-18T06:15:52.565Z,12.44
2023-04-18T06:18:55.382Z,12.76
2023-04-18T06:21:58.091Z,13.01
2023-04-18T06:25:00.806Z,13.22
2023-04-18T06:28:03.510Z,13.45
2023-04-18T06:31:06.112Z,13.65
2023-04-18T06:34:09.299Z,13.83
2023-04-18T06:37:12.056Z,14.02
2023-04-18T06:40:14.937Z,14.23
2023-04-18T06:43:17.460Z,14.41
2023-04-18T06:46:21.306Z,14.53
2023-04-18T06:49:26.359Z,14.60
2023-04-18T06:52:29.743Z,14.78
2023-04-18T06:55:32.464Z,15.04
2023-04-18T06:58:35.465Z,15.25
2023-04-18T07:01:44.623Z,15.43
2023-04-18T07:04:47.884Z,15.53
2023-04-18T07:07:51.431Z,15.78
2023-04-18T07:10:54.356Z,15.86
2023-04-18T07:13:57.229Z,16.00
2023-04-18T07:17:00.951Z,16.04
2023-04-18T07:20:03.981Z,16.31
2023-04-18T07:23:07.575Z,16.48
2023-04-18T07:26:12.644Z,16.50
2023-04-18T07:29:15.745Z,16.75
2023-04-18T07:32:18.664Z,17.05
2023-04-18T07:35:21.797Z,17.10
2023-04-18T07:38:24.452Z,17.10
2023-04-18T07:41:27.424Z,16.85
2023-04-18T07:44:30.324Z,16.97
2023-04-18T07:47:33.709Z,16.63
2023-04-18T07:50:36.598Z,16.61
2023-04-18T07:53:41.110Z,16.68
2023-04-18T07:56:43.671Z,16.75
2023-04-18T07:59:46.522Z,16.76
2023-04-18T08:02:49.619Z,16.70
2023-04-18T08:05:53.590Z,16.51
2023-04-18T08:08:56.314Z,16.48
2023-04-18T08:11:59.357Z,16.58
2023-04-18T08:15:02.006Z,16.68
2023-04-18T08:18:05.806Z,17.23
2023-04-18T08:21:08.402Z,17.74
2023-04-18T08:24:11.124Z,17.96
2023-04-18T08:27:13.805Z,18.25
2023-04-18T08:30:16.980Z,18.55
2023-04-18T08:33:19.591Z,18.27
2023-04-18T08:36:22.618Z,18.63
2023-04-18T08:39:25.390Z,18.74
2023-04-18T08:42:29.119Z,18.24
2023-04-18T08:45:33.430Z,18.51
2023-04-18T08:48:36.812Z,19.14
2023-04-18T08:51:41.678Z,19.48
2023-04-18T08:54:47.009Z,19.57
2023-04-18T08:57:54.100Z,19.70
2023-04-18T09:00:57.150Z,19.63
2023-04-18T09:03:59.865Z,20.03
2023-04-18T09:07:03.397Z,20.16
2023-04-18T09:10:06.383Z,19.95
2023-04-18T09:13:10.029Z,20.08
2023-04-18T09:16:13.611Z,20.24
2023-04-18T09:19:19.370Z,20.32
2023-04-18T09:22:22.881Z,20.52
2023-04-18T09:25:27.385Z,20.47
2023-04-18T09:28:33.111Z,20.41
2023-04-18T09:31:54.783Z,20.51
2023-04-18T09:35:04.286Z,19.98
2023-04-18T09:38:07.945Z,19.66
2023-04-18T09:41:12.224Z,19.78
2023-04-18T09:44:17.160Z,20.06
2023-04-18T09:47:20.194Z,20.34
2023-04-18T09:50:22.963Z,20.59
2023-04-18T09:53:26.703Z,20.66
2023-04-18T09:56:32.672Z,21.07
2023-04-18T09:59:55.240Z,20.89
2023-04-18T10:03:09.974Z,21.08
2023-04-18T10:09:36.765Z,21.75
2023-04-18T10:12:41.499Z,21.60
2023-04-18T10:15:44.562Z,21.33
2023-04-18T10:18:50.771Z,21.65
2023-04-18T10:21:53.976Z,21.90
2023-04-18T10:24:57.176Z,21.66
2023-04-18T10:28:00.938Z,21.81
2023-04-18T10:31:04.304Z,21.57
2023-04-18T10:34:07.377Z,21.75
2023-04-18T10:37:12.980Z,22.11
2023-04-18T10:40:15.753Z,22.83
2023-04-18T10:43:18.773Z,23.20
2023-04-18T10:46:31.813Z,23.53
2023-04-18T10:49:38.626Z,23.68
2023-04-18T10:52:41.819Z,24.22
2023-04-18T10:55:54.553Z,23.88
2023-04-18T10:59:01.788Z,23.76
2023-04-18T11:02:13.825Z,23.39
2023-04-18T11:05:25.683Z,22.82
2023-04-18T11:08:28.765Z,22.75
2023-04-18T11:11:31.832Z,22.71
2023-04-18T11:14:44.698Z,22.97
2023-04-18T11:18:04.701Z,23.67
2023-04-18T11:21:07.930Z,24.19
2023-04-18T11:24:10.797Z,24.18
2023-04-18T11:27:14.193Z,25.05
2023-04-18T11:30:17.887Z,25.07
2023-04-18T11:33:21.016Z,25.36
2023-04-18T11:36:24.032Z,24.96
2023-04-18T11:39:27.595Z,24.39
2023-04-18T11:42:37.690Z,23.27
2023-04-18T11:45:51.507Z,22.89
2023-04-18T11:48:54.241Z,22.79
2023-04-18T11:52:01.477Z,22.15
2023-04-18T11:55:18.668Z,21.19
2023-04-18T11:58:31.709Z,20.80
2023-04-18T12:01:34.359Z,20.93
2023-04-18T12:04:58.315Z,21.07
2023-04-18T12:08:18.874Z,21.66
2023-04-18T12:11:21.782Z,22.73
2023-04-18T12:14:24.675Z,23.91
2023-04-18T12:17:28.488Z,24.40
2023-04-18T12:20:52.188Z,24.93
2023-04-18T12:23:55.326Z,25.02
2023-04-18T12:26:58.669Z,24.90
2023-04-18T12:30:01.900Z,24.63
2023-04-18T12:33:04.964Z,23.47
2023-04-18T12:36:08.660Z,23.07
2023-04-18T12:39:11.361Z,22.37
2023-04-18T12:42:14.293Z,21.82
2023-04-18T12:45:18.124Z,21.32
2023-04-18T12:48:21.016Z,20.95
2023-04-18T12:51:24.352Z,20.70
2023-04-18T12:54:27.206Z,20.63
2023-04-18T12:57:31.684Z,20.76
2023-04-18T13:00:35.166Z,22.45
2023-04-18T13:03:38.300Z,26.77
2023-04-18T13:06:41.521Z,28.13
2023-04-18T13:09:46.465Z,30.40
2023-04-18T13:12:50.209Z,34.12
2023-04-18T13:15:52.826Z,36.47
2023-04-18T13:18:55.688Z,38.19
2023-04-18T13:21:59.330Z,40.61
2023-04-18T13:25:02.253Z,41.88
2023-04-18T13:28:05.216Z,43.58
2023-04-18T13:31:08.215Z,44.26
2023-04-18T13:34:10.859Z,44.69
2023-04-18T13:37:17.057Z,42.86
2023-04-18T13:40:19.843Z,39.52
2023-04-18T13:43:22.890Z,41.01
2023-04-18T13:46:27.600Z,42.49
2023-04-18T13:49:30.921Z,43.38
2023-04-18T13:52:33.874Z,42.57
2023-04-18T13:55:37.216Z,44.20
2023-04-18T13:58:39.725Z,45.24
2023-04-18T14:01:42.925Z,45.56
2023-04-18T14:04:46.527Z,46.92
2023-04-18T14:07:49.192Z,45.59
2023-04-18T14:10:52.406Z,42.50
2023-04-18T14:13:55.144Z,41.88
2023-04-18T14:16:58.166Z,40.64
2023-04-18T14:20:01.505Z,41.09
2023-04-18T14:23:04.468Z,41.93
2023-04-18T14:26:07.094Z,41.36
2023-04-18T14:29:10.143Z,39.09
2023-04-18T14:32:13.743Z,38.35
2023-04-18T14:35:16.913Z,38.82
2023-04-18T14:38:19.542Z,40.04
2023-04-18T14:41:22.371Z,39.96
2023-04-18T14:44:25.531Z,42.30
2023-04-18T14:47:31.901Z,44.41
2023-04-18T14:50:36.011Z,44.23
2023-04-18T14:53:39.119Z,43.76
2023-04-18T14:56:41.863Z,44.91
2023-04-18T14:59:44.848Z,46.41
2023-04-18T15:02:47.936Z,46.79
2023-04-18T15:05:53.189Z,46.09
2023-04-18T15:08:56.723Z,47.60
2023-04-18T15:12:00.164Z,47.41
2023-04-18T15:15:02.825Z,41.64
2023-04-18T15:18:07.544Z,38.85
2023-04-18T15:21:10.281Z,40.99
2023-04-18T15:24:13.339Z,42.81
2023-04-18T15:27:16.219Z,44.55
